Time;durP1;ratioP1;P1;durP2;ratioP2;P2;SDS_P1;SDS_P2;PMS_P1;PMS_P2;Temp;Humidity;BMP_temperature;BMP_pressure;BME280_temperature;BME280_humidity;BME280_pressure;Samples;Min_cycle;Max_cycle;Signal;HPM_P1;HPM_P2
2021/07/14 00:01:30;;;;;;;;;;;;;;;28.85;38.34;99426.78;5092410;28;19926;-38
2021/07/14 00:03:55;;;;;;;;;;;;;;;28.18;40.09;99436.59;5092265;28;19919;-37
2021/07/14 00:06:21;;;;;;;;;;;;;;;27.89;40.61;99432.69;5092211;28;19916;-38
2021/07/14 00:08:46;;;;;;;;;;;;;;;27.95;40.53;99436.06;5092359;28;19984;-38
2021/07/14 00:11:11;;;;;;;;;;;;;;;28.11;40.31;99441.81;5092472;28;19924;-37
2021/07/14 00:13:57;;;;;;;;;;;;;;;28.03;40.63;99438.78;5092431;28;19950;-37
2021/07/14 00:22:08;;;;;;;;;;;;;;;27.71;41.71;99434.66;5112146;28;20290;-38
2021/07/14 00:24:34;;;;;;;;;;;;;;;27.78;41.69;99432.25;5112196;28;20296;-37
2021/07/14 00:26:59;;;;;;;;;;;;;;;27.87;41.51;99438.50;5112069;28;19957;-38
2021/07/14 00:29:24;;;;;;;;;;;;;;;27.96;41.54;99445.88;5111962;28;19915;-38
2021/07/14 00:31:50;;;;;;;;;;;;;;;27.96;41.66;99440.41;5112126;28;19943;-37
2021/07/14 00:34:15;;;;;;;;;;;;;;;27.91;41.97;99435.91;5112514;28;19926;-38
2021/07/14 00:36:40;;;;;;;;;;;;;;;27.35;43.43;99443.25;5111725;28;20376;-37
2021/07/14 00:39:06;;;;;;;;;;;;;;;27.30;43.34;99450.47;5111905;28;19963;-38
2021/07/14 00:41:32;;;;;;;;;;;;;;;27.28;43.48;99452.75;5112131;28;20363;-38
2021/07/14 00:43:57;;;;;;;;;;;;;;;27.24;43.99;99457.19;5091790;28;19919;-38
2021/07/14 00:46:23;;;;;;;;;;;;;;;27.29;43.50;99459.78;5091360;28;19912;-38
2021/07/14 00:48:49;;;;;;;;;;;;;;;27.07;43.65;99447.09;5091320;28;20305;-38
2021/07/14 00:51:15;;;;;;;;;;;;;;;27.21;43.36;99455.13;5091371;28;19962;-38
2021/07/14 00:53:40;;;;;;;;;;;;;;;27.33;44.39;99454.50;5091645;28;20380;-38
2021/07/14 00:56:05;;;;;;;;;;;;;;;27.23;44.41;99457.53;5090224;28;19916;-37
2021/07/14 00:58:32;;;;;;;;;;;;;;;27.17;44.40;99440.50;5091148;28;20364;-38
2021/07/14 01:00:57;;;;;;;;;;;;;;;26.96;44.86;99445.78;5091162;28;20367;-38
2021/07/14 01:03:23;;;;;;;;;;;;;;;26.98;44.90;99451.72;5091372;28;19912;-37
2021/07/14 01:05:48;;;;;;;;;;;;;;;26.96;44.94;99453.97;5091097;28;19912;-37
2021/07/14 01:08:27;;;;;;;;;;;;;;;26.91;44.90;99444.00;5089808;28;19940;-38
2021/07/14 01:11:00;;;;;;;;;;;;;;;26.91;44.70;99444.00;5091332;28;19938;-37
2021/07/14 01:13:34;;;;;;;;;;;;;;;26.70;45.13;99441.09;5091319;28;19912;-38
2021/07/14 01:16:12;;;;;;;;;;;;;;;26.84;45.12;99440.94;5090781;28;19942;-49
2021/07/14 01:18:37;;;;;;;;;;;;;;;26.80;45.75;99447.38;5099248;28;19972;-51
2021/07/14 01:21:16;;;;;;;;;;;;;;;26.82;45.18;99435.00;5111160;28;19912;-49
2021/07/14 01:23:46;;;;;;;;;;;;;;;26.81;45.14;99451.72;5109776;28;19919;-49
2021/07/14 01:26:30;;;;;;;;;;;;;;;26.80;45.92;99448.16;5110710;28;19912;-51
2021/07/14 01:28:55;;;;;;;;;;;;;;;26.44;47.02;99449.19;5110911;28;20422;-48
2021/07/14 01:31:21;;;;;;;;;;;;;;;26.56;46.57;99451.31;5111113;28;19912;-49
2021/07/14 01:33:49;;;;;;;;;;;;;;;26.71;45.90;99444.63;5110897;28;20002;-49
2021/07/14 01:36:16;;;;;;;;;;;;;;;26.82;46.00;99443.19;5111211;28;19912;-49
2021/07/14 01:38:42;;;;;;;;;;;;;;;26.74;46.32;99444.00;5109468;28;20425;-51
2021/07/14 01:41:07;;;;;;;;;;;;;;;26.61;47.07;99443.00;5109593;28;19912;-52
2021/07/14 01:43:33;;;;;;;;;;;;;;;26.85;46.52;99445.28;5109330;28;20276;-50
2021/07/14 01:45:58;;;;;;;;;;;;;;;26.85;46.74;99444.50;5109457;28;19911;-50
2021/07/14 01:48:23;;;;;;;;;;;;;;;26.94;46.70;99439.03;5109519;28;20052;-50
2021/07/14 01:50:49;;;;;;;;;;;;;;;26.96;46.86;99439.50;5109428;28;20603;-50
2021/07/14 01:53:14;;;;;;;;;;;;;;;26.94;47.05;99434.41;5111093;28;19911;-49
2021/07/14 01:55:40;;;;;;;;;;;;;;;26.78;47.13;99430.50;5109703;28;20385;-51
2021/07/14 01:58:05;;;;;;;;;;;;;;;26.76;47.79;99435.50;5109582;28;20004;-49
2021/07/14 02:00:30;;;;;;;;;;;;;;;26.81;47.66;99429.88;5109295;28;19923;-49
2021/07/14 02:05:27;;;;;;;;;;;;;;;26.70;48.27;99437.56;5109334;28;19994;-48
2021/07/14 02:07:52;;;;;;;;;;;;;;;26.52;48.58;99433.94;5111097;28;20003;-51
2021/07/14 02:10:17;;;;;;;;;;;;;;;26.62;48.15;99424.72;5114564;28;19911;-50
2021/07/14 02:12:44;;;;;;;;;;;;;;;26.61;48.62;99432.06;5114560;28;19912;-47
2021/07/14 02:15:10;;;;;;;;;;;;;;;26.61;48.81;99434.81;5101756;28;19912;-48
2021/07/14 02:17:48;;;;;;;;;;;;;;;26.65;48.16;99432.25;5094792;28;20424;-49
2021/07/14 02:20:17;;;;;;;;;;;;;;;26.72;48.45;99438.84;5114094;28;19920;-51
2021/07/14 02:22:43;;;;;;;;;;;;;;;26.84;47.76;99440.94;5114006;28;20349;-49
2021/07/14 02:25:08;;;;;;;;;;;;;;;26.79;48.21;99441.13;5112936;28;19912;-51
2021/07/14 02:27:34;;;;;;;;;;;;;;;26.75;47.94;99445.63;5114335;28;19915;-51
2021/07/14 02:29:59;;;;;;;;;;;;;;;26.76;47.84;99441.75;5114143;28;19912;-52
2021/07/14 02:32:24;;;;;;;;;;;;;;;26.64;47.80;99455.22;5114216;28;20291;-49
2021/07/14 02:34:51;;;;;;;;;;;;;;;26.69;48.26;99455.03;5114308;28;19919;-48
2021/07/14 02:37:17;;;;;;;;;;;;;;;26.70;47.64;99453.94;5114388;28;19918;-50
2021/07/14 02:39:43;;;;;;;;;;;;;;;26.75;47.56;99455.69;5114159;28;20007;-50
2021/07/14 02:42:12;;;;;;;;;;;;;;;26.73;47.28;99458.75;5112645;28;20027;-52
2021/07/14 02:44:39;;;;;;;;;;;;;;;26.52;47.39;99456.59;5113925;28;19994;-48
2021/07/14 02:47:05;;;;;;;;;;;;;;;26.74;47.14;99467.75;5112750;28;19915;-50
2021/07/14 02:49:31;;;;;;;;;;;;;;;26.69;47.95;99457.78;5113871;28;19911;-51
2021/07/14 02:51:57;;;;;;;;;;;;;;;26.52;47.63;99447.59;5112480;28;19918;-47
2021/07/14 02:54:26;;;;;;;;;;;;;;;26.76;47.85;99449.94;5112320;28;19916;-50
2021/07/14 02:56:54;;;;;;;;;;;;;;;26.61;47.74;99453.13;5113885;28;19954;-50
2021/07/14 02:59:20;;;;;;;;;;;;;;;26.55;47.69;99457.09;5112439;28;19938;-51
2021/07/14 03:01:45;;;;;;;;;;;;;;;26.43;47.72;99461.22;5113675;28;19922;-50
2021/07/14 03:04:11;;;;;;;;;;;;;;;26.47;47.45;99462.19;5112687;28;20002;-49
2021/07/14 03:06:38;;;;;;;;;;;;;;;26.32;47.63;99460.69;5112451;28;19912;-48
2021/07/14 03:09:03;;;;;;;;;;;;;;;26.34;46.79;99463.13;5112308;28;19912;-50
2021/07/14 03:11:36;;;;;;;;;;;;;;;26.46;46.16;99465.22;5112164;28;19932;-50
2021/07/14 03:14:01;;;;;;;;;;;;;;;26.47;44.97;99467.66;5110062;28;19915;-51
2021/07/14 03:16:27;;;;;;;;;;;;;;;26.42;44.88;99467.78;5091170;28;19939;-51
2021/07/14 03:18:52;;;;;;;;;;;;;;;26.44;44.56;99470.19;5102733;28;20299;-51
2021/07/14 03:21:17;;;;;;;;;;;;;;;26.49;44.60;99476.31;5111791;28;19918;-50
2021/07/14 03:23:43;;;;;;;;;;;;;;;26.49;44.22;99478.25;5111809;28;19973;-51
2021/07/14 03:26:08;;;;;;;;;;;;;;;26.39;44.47;99468.44;5111695;28;19911;-49
2021/07/14 03:28:34;;;;;;;;;;;;;;;26.39;44.78;99471.16;5111824;28;20382;-49
2021/07/14 03:31:03;;;;;;;;;;;;;;;26.30;44.57;99476.56;5111582;28;19916;-49
2021/07/14 03:33:31;;;;;;;;;;;;;;;26.40;44.56;99478.22;5111079;28;19911;-47
2021/07/14 03:35:58;;;;;;;;;;;;;;;26.40;44.73;99483.66;5112075;28;19933;-49
2021/07/14 03:38:23;;;;;;;;;;;;;;;26.50;44.82;99483.41;5110785;28;20022;-48
2021/07/14 03:40:49;;;;;;;;;;;;;;;26.41;45.15;99487.22;5111434;28;20298;-47
2021/07/14 03:43:14;;;;;;;;;;;;;;;26.46;45.18;99496.03;5111408;28;19959;-48
2021/07/14 03:45:39;;;;;;;;;;;;;;;26.53;44.79;99490.94;5111340;28;19912;-49
2021/07/14 03:48:05;;;;;;;;;;;;;;;26.62;44.45;99496.47;5112687;28;19911;-50
2021/07/14 03:50:30;;;;;;;;;;;;;;;26.91;43.42;99495.88;5093113;28;19919;-50
2021/07/14 03:52:55;;;;;;;;;;;;;;;26.96;43.16;99499.56;5092140;28;19927;-51
2021/07/14 03:55:21;;;;;;;;;;;;;;;27.09;42.91;99506.81;5091075;28;20006;-48
2021/07/14 03:57:46;;;;;;;;;;;;;;;27.30;41.61;99504.28;5090752;28;19916;-48
2021/07/14 04:00:11;;;;;;;;;;;;;;;27.52;42.16;99518.94;5090056;28;20011;-48
2021/07/14 04:02:37;;;;;;;;;;;;;;;27.67;42.10;99518.44;5091424;28;19916;-49
2021/07/14 04:05:03;;;;;;;;;;;;;;;27.82;41.99;99519.88;5091323;28;20002;-49
2021/07/14 04:07:28;;;;;;;;;;;;;;;27.85;42.00;99521.94;5091332;28;19927;-50
2021/07/14 04:09:54;;;;;;;;;;;;;;;28.04;41.80;99519.66;5089291;28;19912;-51
2021/07/14 04:12:19;;;;;;;;;;;;;;;28.16;41.47;99520.94;5082508;28;20174;-49
2021/07/14 04:14:44;;;;;;;;;;;;;;;28.30;41.32;99524.28;5089061;28;19965;-51
2021/07/14 04:17:10;;;;;;;;;;;;;;;28.59;40.69;99528.22;5090674;28;19956;-48
2021/07/14 04:19:35;;;;;;;;;;;;;;;28.63;40.76;99523.69;5091329;28;20015;-49
2021/07/14 04:22:04;;;;;;;;;;;;;;;28.89;40.07;99531.75;5091320;28;20478;-49
2021/07/14 04:24:30;;;;;;;;;;;;;;;28.97;40.16;99532.84;5091495;28;19951;-48
2021/07/14 04:26:55;;;;;;;;;;;;;;;29.06;40.22;99530.84;5091213;28;20036;-47
2021/07/14 04:29:20;;;;;;;;;;;;;;;29.21;39.15;99533.03;5089853;28;19954;-50
2021/07/14 04:31:45;;;;;;;;;;;;;;;29.46;38.66;99540.59;5091023;28;19970;-51
2021/07/14 04:34:11;;;;;;;;;;;;;;;29.72;38.35;99545.81;5090687;28;19969;-52
2021/07/14 04:36:37;;;;;;;;;;;;;;;30.02;37.99;99536.38;5090428;28;19919;-50
2021/07/14 04:39:05;;;;;;;;;;;;;;;30.08;37.74;99534.19;5090258;28;19931;-48
2021/07/14 04:41:30;;;;;;;;;;;;;;;30.12;37.94;99535.16;5090269;28;19920;-50
2021/07/14 04:43:58;;;;;;;;;;;;;;;30.50;36.82;99553.31;5076454;28;19919;-50
2021/07/14 04:46:24;;;;;;;;;;;;;;;30.76;36.64;99547.44;5090680;28;20304;-38
2021/07/14 04:48:49;;;;;;;;;;;;;;;31.35;35.45;99554.38;5092094;28;19912;-49
2021/07/14 04:51:14;;;;;;;;;;;;;;;31.47;35.21;99552.78;5090373;28;19941;-50
2021/07/14 04:53:39;;;;;;;;;;;;;;;31.19;36.07;99537.03;5091872;28;19912;-51
2021/07/14 04:56:05;;;;;;;;;;;;;;;31.31;35.93;99561.72;5091894;28;19916;-38
2021/07/14 04:58:30;;;;;;;;;;;;;;;31.54;35.49;99559.28;5092051;28;20030;-37
2021/07/14 05:00:55;;;;;;;;;;;;;;;31.95;34.32;99564.75;5093634;28;19988;-38
2021/07/14 05:03:23;;;;;;;;;;;;;;;32.18;33.66;99561.41;5090193;28;19912;-37
2021/07/14 05:05:48;;;;;;;;;;;;;;;33.08;32.38;99559.72;5091657;28;19921;-47
2021/07/14 05:08:13;;;;;;;;;;;;;;;32.67;32.67;99561.09;5091980;28;19912;-50
2021/07/14 05:10:39;;;;;;;;;;;;;;;32.48;32.92;99570.88;5092031;28;19989;-48
2021/07/14 05:13:04;;;;;;;;;;;;;;;32.58;33.08;99566.00;5092630;28;20465;-51
2021/07/14 05:15:30;;;;;;;;;;;;;;;33.01;32.20;99570.56;5087653;28;20015;-49
2021/07/14 05:17:55;;;;;;;;;;;;;;;33.38;31.47;99577.72;5120422;27;19931;-50
2021/07/14 05:20:20;;;;;;;;;;;;;;;33.95;30.69;99564.28;5104441;28;20018;-49
2021/07/14 05:22:46;;;;;;;;;;;;;;;33.66;31.16;99574.75;5093268;28;19993;-49
2021/07/14 05:25:11;;;;;;;;;;;;;;;33.73;30.44;99565.84;5104921;28;20535;-51
2021/07/14 05:27:37;;;;;;;;;;;;;;;34.07;30.22;99573.19;5089443;28;20441;-47
2021/07/14 05:30:04;;;;;;;;;;;;;;;34.42;29.60;99577.00;5089326;28;19916;-49
2021/07/14 05:32:29;;;;;;;;;;;;;;;35.13;28.93;99573.75;5089242;28;19952;-47
2021/07/14 05:34:54;;;;;;;;;;;;;;;34.95;28.48;99571.53;5089504;28;20578;-38
2021/07/14 05:37:20;;;;;;;;;;;;;;;34.72;29.20;99574.34;5089776;28;19969;-37
2021/07/14 05:39:45;;;;;;;;;;;;;;;34.56;29.18;99566.19;5089209;28;20536;-38
2021/07/14 05:42:10;;;;;;;;;;;;;;;34.87;28.54;99569.06;5088717;28;19980;-38
2021/07/14 05:44:35;;;;;;;;;;;;;;;35.16;28.37;99545.38;5089614;28;20466;-37
2021/07/14 05:47:01;;;;;;;;;;;;;;;35.78;27.64;99565.19;5078211;28;19917;-38
2021/07/14 05:49:26;;;;;;;;;;;;;;;35.57;27.59;99562.16;5082553;28;19993;-39
2021/07/14 05:51:51;;;;;;;;;;;;;;;35.44;28.45;99559.59;5089186;28;19912;-38
2021/07/14 05:54:17;;;;;;;;;;;;;;;35.69;27.73;99559.13;5088832;28;19912;-39
2021/07/14 05:56:42;;;;;;;;;;;;;;;36.09;27.26;99573.41;5088337;28;19916;-39
2021/07/14 05:59:07;;;;;;;;;;;;;;;36.25;26.53;99575.97;5088247;28;19916;-38
2021/07/14 06:01:32;;;;;;;;;;;;;;;36.17;26.62;99564.00;5089098;28;19948;-38
2021/07/14 06:03:58;;;;;;;;;;;;;;;36.42;26.05;99567.00;5089448;28;19912;-39
2021/07/14 06:06:23;;;;;;;;;;;;;;;36.27;25.36;99554.22;5089219;28;19919;-38
2021/07/14 06:08:48;;;;;;;;;;;;;;;36.96;24.54;99573.78;5089052;28;20257;-38
2021/07/14 06:11:13;;;;;;;;;;;;;;;37.10;24.73;99577.81;5089472;28;19912;-38
2021/07/14 06:13:39;;;;;;;;;;;;;;;36.66;25.39;99578.72;5089048;28;19969;-37
2021/07/14 06:16:04;;;;;;;;;;;;;;;36.87;25.02;99576.09;5089077;28;19942;-38
2021/07/14 06:18:30;;;;;;;;;;;;;;;37.13;25.19;99574.28;5089228;28;20015;-39
2021/07/14 06:20:55;;;;;;;;;;;;;;;37.93;24.27;99570.69;5088905;28;20419;-39
2021/07/14 06:23:20;;;;;;;;;;;;;;;37.82;24.26;99578.19;5089321;28;19934;-38
2021/07/14 06:25:45;;;;;;;;;;;;;;;37.42;24.91;99578.03;5089408;28;19939;-39
2021/07/14 06:28:13;;;;;;;;;;;;;;;37.40;25.07;99576.81;5089107;28;20261;-39
2021/07/14 06:30:42;;;;;;;;;;;;;;;37.42;25.19;99582.78;5089213;28;19911;-39
2021/07/14 06:33:07;;;;;;;;;;;;;;;38.43;23.79;99578.31;5088452;28;20426;-49
2021/07/14 06:35:32;;;;;;;;;;;;;;;37.76;24.92;99572.22;5088260;28;20419;-48
2021/07/14 06:37:58;;;;;;;;;;;;;;;37.91;24.40;99559.97;5087416;28;19912;-54
2021/07/14 06:40:23;;;;;;;;;;;;;;;38.03;24.39;99569.91;5088412;28;19923;-49
2021/07/14 06:42:49;;;;;;;;;;;;;;;37.84;24.41;99575.81;5088296;28;19927;-52
2021/07/14 06:45:14;;;;;;;;;;;;;;;38.99;23.54;99573.13;5088303;28;19913;-55
2021/07/14 06:47:40;;;;;;;;;;;;;;;38.01;24.32;99568.72;5088295;28;19922;-52
2021/07/14 06:50:05;;;;;;;;;;;;;;;37.47;25.26;99565.75;5088642;28;19947;-51
2021/07/14 06:52:31;;;;;;;;;;;;;;;37.78;24.88;99567.09;5088233;28;20241;-54
2021/07/14 06:54:56;;;;;;;;;;;;;;;38.29;23.86;99560.44;5089859;28;20381;-54
2021/07/14 06:57:23;;;;;;;;;;;;;;;37.79;24.88;99562.31;5091341;28;19912;-52
2021/07/14 06:59:49;;;;;;;;;;;;;;;38.00;24.67;99559.56;5091278;28;20011;-46
2021/07/14 07:02:14;;;;;;;;;;;;;;;38.33;24.77;99558.47;5091410;28;19994;-49
2021/07/14 07:04:39;;;;;;;;;;;;;;;38.52;24.38;99557.28;5091150;28;19935;-48
2021/07/14 07:07:04;;;;;;;;;;;;;;;38.81;23.79;99562.03;5091098;28;19999;-49
2021/07/14 07:09:30;;;;;;;;;;;;;;;39.09;23.03;99561.22;5091394;28;20308;-49
2021/07/14 07:11:55;;;;;;;;;;;;;;;38.70;23.65;99557.28;5091156;28;20319;-50
2021/07/14 07:14:20;;;;;;;;;;;;;;;38.83;23.49;99557.66;5090749;28;19912;-49
2021/07/14 07:16:46;;;;;;;;;;;;;;;38.54;23.79;99562.47;5090377;28;19923;-48
2021/07/14 07:19:11;;;;;;;;;;;;;;;39.63;22.51;99561.81;5105051;28;20390;-48
2021/07/14 07:21:36;;;;;;;;;;;;;;;39.04;22.94;99559.63;5111035;28;19915;-48
2021/07/14 07:24:02;;;;;;;;;;;;;;;38.50;23.58;99558.88;5111015;28;20316;-48
2021/07/14 07:26:27;;;;;;;;;;;;;;;38.61;23.71;99562.44;5111042;28;19911;-49
2021/07/14 07:28:58;;;;;;;;;;;;;;;38.71;23.25;99560.88;5111187;28;20367;-49
2021/07/14 07:31:24;;;;;;;;;;;;;;;39.67;22.03;99556.22;5111099;28;19966;-49
2021/07/14 07:33:49;;;;;;;;;;;;;;;38.84;23.35;99552.88;5111423;28;19947;-51
2021/07/14 07:36:14;;;;;;;;;;;;;;;38.03;23.84;99549.69;5111074;28;19912;-51
2021/07/14 07:38:40;;;;;;;;;;;;;;;38.46;23.20;99544.16;5110832;28;20019;-49
2021/07/14 07:41:05;;;;;;;;;;;;;;;38.79;22.96;99540.19;5110751;28;19912;-48
2021/07/14 07:43:31;;;;;;;;;;;;;;;38.73;23.28;99541.81;5110882;28;19918;-49
2021/07/14 07:45:56;;;;;;;;;;;;;;;38.49;23.56;99529.47;5105137;28;20388;-49
2021/07/14 07:48:22;;;;;;;;;;;;;;;38.59;23.33;99533.47;5089661;28;19919;-49
2021/07/14 07:50:48;;;;;;;;;;;;;;;38.65;23.62;99524.34;5090331;28;20067;-48
2021/07/14 07:53:14;;;;;;;;;;;;;;;38.84;23.15;99525.06;5090183;28;19972;-50
2021/07/14 07:55:39;;;;;;;;;;;;;;;38.74;22.79;99525.91;5090140;28;20105;-50
2021/07/14 07:58:05;;;;;;;;;;;;;;;39.76;21.90;99519.59;5090158;28;20400;-50
2021/07/14 08:00:30;;;;;;;;;;;;;;;39.55;22.71;99521.31;5089917;28;20277;-48
2021/07/14 08:02:56;;;;;;;;;;;;;;;39.39;22.75;99520.94;5090439;28;19912;-48
2021/07/14 08:05:21;;;;;;;;;;;;;;;39.55;21.45;99517.72;5089915;28;20009;-48
2021/07/14 08:07:46;;;;;;;;;;;;;;;39.53;22.12;99518.13;5090269;28;19919;-49
2021/07/14 08:10:12;;;;;;;;;;;;;;;40.25;20.98;99523.22;5090317;28;19964;-49
2021/07/14 08:12:38;;;;;;;;;;;;;;;40.17;21.37;99518.91;5090516;28;19919;-49
2021/07/14 08:15:04;;;;;;;;;;;;;;;39.87;20.95;99517.50;5091185;28;19963;-50
2021/07/14 08:17:29;;;;;;;;;;;;;;;39.81;21.16;99511.59;5089918;28;19971;-49
2021/07/14 08:19:54;;;;;;;;;;;;;;;40.07;20.23;99515.03;5090399;28;20347;-51
2021/07/14 08:22:19;;;;;;;;;;;;;;;40.02;21.51;99513.47;5090449;28;19962;-47
2021/07/14 08:24:45;;;;;;;;;;;;;;;41.42;20.24;99517.66;5098953;28;19959;-50
2021/07/14 08:27:10;;;;;;;;;;;;;;;40.47;21.08;99515.50;5100564;28;20292;-50
2021/07/14 08:29:36;;;;;;;;;;;;;;;40.33;21.08;99505.28;5100293;28;19962;-50
2021/07/14 08:32:01;;;;;;;;;;;;;;;40.16;21.39;99506.22;5101600;28;19912;-50
2021/07/14 08:34:26;;;;;;;;;;;;;;;40.20;21.38;99510.53;5090703;28;19916;-50
2021/07/14 08:36:51;;;;;;;;;;;;;;;40.69;20.51;99502.16;5090981;28;20372;-50
2021/07/14 08:39:17;;;;;;;;;;;;;;;40.80;21.36;99508.44;5090668;28;19924;-52
2021/07/14 08:41:43;;;;;;;;;;;;;;;39.79;21.93;99504.84;5090864;28;19988;-48
2021/07/14 08:44:08;;;;;;;;;;;;;;;39.32;22.23;99493.97;5091143;28;19912;-50
2021/07/14 08:46:35;;;;;;;;;;;;;;;38.68;23.42;99495.72;5090165;28;19916;-49
2021/07/14 08:49:03;;;;;;;;;;;;;;;38.72;22.79;99493.72;5088170;28;20376;-47
2021/07/14 08:51:29;;;;;;;;;;;;;;;39.80;21.82;99500.88;5090832;28;20064;-50
2021/07/14 08:53:54;;;;;;;;;;;;;;;39.56;22.17;99492.25;5089002;28;19958;-48
2021/07/14 08:56:20;;;;;;;;;;;;;;;39.56;22.84;99491.47;5089137;28;19924;-49
2021/07/14 08:58:45;;;;;;;;;;;;;;;39.82;22.58;99492.91;5090252;28;20030;-51
2021/07/14 09:01:10;;;;;;;;;;;;;;;40.16;21.51;99500.63;5088980;28;19920;-49
2021/07/14 09:03:35;;;;;;;;;;;;;;;40.36;21.20;99498.09;5089361;28;20022;-50
2021/07/14 09:06:01;;;;;;;;;;;;;;;41.58;20.57;99497.53;5089854;28;20490;-51
2021/07/14 09:08:26;;;;;;;;;;;;;;;41.25;20.56;99495.59;5089829;28;19912;-49
2021/07/14 09:10:51;;;;;;;;;;;;;;;41.07;20.52;99496.56;5088951;28;19912;-49
2021/07/14 09:13:17;;;;;;;;;;;;;;;40.98;20.78;99491.50;5088396;28;20045;-51
2021/07/14 09:15:43;;;;;;;;;;;;;;;40.92;20.81;99486.78;5088465;28;19913;-48
2021/07/14 09:18:08;;;;;;;;;;;;;;;40.78;21.46;99488.50;5094657;28;19961;-49
2021/07/14 09:20:34;;;;;;;;;;;;;;;41.25;19.51;99484.41;5109764;28;19924;-51
2021/07/14 09:23:16;;;;;;;;;;;;;;;40.02;21.05;99477.25;5109555;28;19995;-52
2021/07/14 09:25:45;;;;;;;;;;;;;;;39.82;21.57;99482.53;5110047;28;19912;-49
2021/07/14 09:28:11;;;;;;;;;;;;;;;39.85;21.73;99470.59;5109852;28;20348;-50
2021/07/14 09:30:36;;;;;;;;;;;;;;;40.05;20.89;99475.63;5110217;28;19919;-49
2021/07/14 09:33:05;;;;;;;;;;;;;;;40.03;19.76;99464.91;5110120;28;20371;-51
2021/07/14 09:35:51;;;;;;;;;;;;;;;40.32;19.38;99475.00;5109986;28;19912;-50
2021/07/14 09:38:17;;;;;;;;;;;;;;;40.64;18.99;99467.13;5090512;28;20445;-50
2021/07/14 09:40:43;;;;;;;;;;;;;;;39.83;19.49;99469.41;5090170;28;19920;-52
2021/07/14 09:43:11;;;;;;;;;;;;;;;38.76;20.93;99470.69;5089921;28;20283;-51
2021/07/14 09:45:36;;;;;;;;;;;;;;;38.92;20.64;99468.28;5089772;28;19912;-49
2021/07/14 09:48:02;;;;;;;;;;;;;;;39.40;20.89;99452.97;5090168;28;19919;-49
2021/07/14 09:50:31;;;;;;;;;;;;;;;40.03;20.53;99472.47;5090417;28;19912;-50
2021/07/14 09:53:03;;;;;;;;;;;;;;;40.37;19.86;99469.81;5090024;28;19920;-50
2021/07/14 09:55:31;;;;;;;;;;;;;;;41.19;19.32;99470.94;5089677;28;20401;-50
2021/07/14 09:58:10;;;;;;;;;;;;;;;40.46;20.26;99472.09;5089988;28;19912;-49
2021/07/14 10:00:51;;;;;;;;;;;;;;;39.87;19.23;99475.72;5089537;28;20372;-48
2021/07/14 10:03:17;;;;;;;;;;;;;;;39.01;21.24;99470.63;5089769;28;19993;-49
2021/07/14 10:05:42;;;;;;;;;;;;;;;38.93;21.47;99475.41;5089491;28;19919;-51
2021/07/14 10:08:14;;;;;;;;;;;;;;;38.73;21.23;99469.53;5089691;28;20300;-48
2021/07/14 10:10:40;;;;;;;;;;;;;;;38.76;20.19;99471.47;5089958;28;19943;-48
2021/07/14 10:13:08;;;;;;;;;;;;;;;37.77;21.46;99461.97;5088958;28;20257;-49
2021/07/14 10:15:34;;;;;;;;;;;;;;;37.81;20.79;99460.00;5089508;28;19919;-49
2021/07/14 10:17:59;;;;;;;;;;;;;;;37.74;21.38;99450.47;5094333;28;19919;-49
2021/07/14 10:20:32;;;;;;;;;;;;;;;38.13;21.02;99451.72;5109756;28;19966;-50
2021/07/14 10:22:58;;;;;;;;;;;;;;;37.90;21.69;99449.31;5110183;28;19996;-50
2021/07/14 10:25:24;;;;;;;;;;;;;;;38.18;21.36;99442.19;5109992;28;19922;-53
2021/07/14 10:27:49;;;;;;;;;;;;;;;38.43;20.94;99442.16;5110104;28;19912;-51
2021/07/14 10:30:15;;;;;;;;;;;;;;;38.56;21.50;99442.53;5113852;28;19968;-51
2021/07/14 10:32:40;;;;;;;;;;;;;;;38.49;20.55;99446.13;5113432;28;19966;-49
2021/07/14 10:35:06;;;;;;;;;;;;;;;38.88;21.26;99440.47;5113629;28;20044;-50
2021/07/14 10:37:31;;;;;;;;;;;;;;;39.30;21.50;99444.28;5100767;28;19919;-47
2021/07/14 10:39:57;;;;;;;;;;;;;;;39.16;20.73;99438.78;5091591;28;19917;-51
2021/07/14 10:42:22;;;;;;;;;;;;;;;39.40;20.30;99433.50;5092786;28;20006;-49
2021/07/14 10:44:47;;;;;;;;;;;;;;;39.23;20.44;99430.41;5093026;28;19912;-51
2021/07/14 10:47:12;;;;;;;;;;;;;;;39.42;20.42;99431.88;5093597;28;20006;-55
2021/07/14 10:49:38;;;;;;;;;;;;;;;38.92;21.46;99435.69;5093381;28;19919;-48
2021/07/14 10:52:04;;;;;;;;;;;;;;;38.75;21.75;99430.19;5093197;28;19916;-50
2021/07/14 10:54:29;;;;;;;;;;;;;;;38.27;21.46;99439.78;5093096;28;19912;-50
2021/07/14 10:56:54;;;;;;;;;;;;;;;38.33;22.45;99436.22;5092963;28;19912;-48
2021/07/14 10:59:21;;;;;;;;;;;;;;;37.92;21.73;99433.81;5091844;28;19999;-48
2021/07/14 11:01:48;;;;;;;;;;;;;;;38.13;22.04;99426.72;5092999;28;20024;-49
2021/07/14 11:04:14;;;;;;;;;;;;;;;38.33;22.01;99422.31;5093136;28;19998;-48
2021/07/14 11:06:52;;;;;;;;;;;;;;;37.89;22.23;99422.72;5093195;28;20370;-48
2021/07/14 11:09:36;;;;;;;;;;;;;;;37.27;23.67;99426.59;5092773;28;20336;-50
2021/07/14 11:12:04;;;;;;;;;;;;;;;37.71;22.61;99422.72;5092851;28;20283;-49
2021/07/14 11:15:02;;;;;;;;;;;;;;;38.18;21.65;99418.00;5092727;28;20427;-50
2021/07/14 11:17:28;;;;;;;;;;;;;;;38.42;21.62;99421.91;5080408;28;19920;-48
2021/07/14 11:19:54;;;;;;;;;;;;;;;38.08;21.27;99422.38;5113135;28;19976;-47
2021/07/14 11:22:34;;;;;;;;;;;;;;;38.48;21.03;99414.75;5113140;28;20022;-51
2021/07/14 11:24:59;;;;;;;;;;;;;;;39.26;20.91;99418.47;5113311;28;19918;-47
2021/07/14 11:27:25;;;;;;;;;;;;;;;39.08;20.25;99417.75;5113778;28;19911;-50
2021/07/14 11:29:50;;;;;;;;;;;;;;;39.55;20.28;99414.75;5112721;28;20266;-50
2021/07/14 11:32:34;;;;;;;;;;;;;;;39.74;20.89;99410.59;5112827;28;19969;-48
2021/07/14 11:35:03;;;;;;;;;;;;;;;39.22;20.54;99409.34;5112934;28;19912;-51
2021/07/14 11:37:35;;;;;;;;;;;;;;;38.64;21.25;99416.34;5100759;28;19912;-49
2021/07/14 11:40:18;;;;;;;;;;;;;;;39.05;21.43;99402.69;5091396;28;19916;-49
2021/07/14 11:42:47;;;;;;;;;;;;;;;38.98;20.28;99401.91;5092461;28;19916;-49
2021/07/14 11:45:12;;;;;;;;;;;;;;;38.99;19.93;99392.34;5092343;28;19994;-50
2021/07/14 11:47:38;;;;;;;;;;;;;;;39.13;20.74;99391.50;5092440;28;20007;-48
2021/07/14 11:50:04;;;;;;;;;;;;;;;39.49;19.92;99401.25;5092109;28;20383;-51
2021/07/14 11:52:44;;;;;;;;;;;;;;;39.24;20.23;99389.44;5091980;28;20398;-50
2021/07/14 11:55:39;;;;;;;;;;;;;;;39.45;20.89;99374.63;5091903;28;19912;-48
2021/07/14 11:58:04;;;;;;;;;;;;;;;39.34;20.35;99390.59;5086414;28;19918;-48
2021/07/14 12:00:30;;;;;;;;;;;;;;;39.31;20.86;99392.19;5091566;28;19916;-51
2021/07/14 12:03:02;;;;;;;;;;;;;;;39.13;20.05;99397.88;5091304;28;19912;-50
2021/07/14 12:05:34;;;;;;;;;;;;;;;39.60;19.86;99386.47;5091390;28;19919;-47
2021/07/14 12:08:09;;;;;;;;;;;;;;;39.34;19.84;99385.00;5091714;28;20230;-49
2021/07/14 12:10:35;;;;;;;;;;;;;;;39.63;19.67;99382.88;5091593;28;19916;-51
2021/07/14 12:13:01;;;;;;;;;;;;;;;39.16;20.01;99390.72;5091703;28;20299;-49
2021/07/14 12:15:27;;;;;;;;;;;;;;;39.13;20.17;99381.19;5090264;28;19912;-50
2021/07/14 12:17:52;;;;;;;;;;;;;;;39.34;20.31;99377.47;5095202;28;20157;-50
2021/07/14 12:20:17;;;;;;;;;;;;;;;38.91;21.77;99374.91;5111681;28;19939;-48
2021/07/14 12:22:42;;;;;;;;;;;;;;;39.04;21.15;99364.94;5111663;28;19916;-50
2021/07/14 12:25:10;;;;;;;;;;;;;;;38.43;21.92;99367.94;5111854;27;19912;-51
2021/07/14 12:27:35;;;;;;;;;;;;;;;38.68;21.26;99359.53;5111698;28;19912;-50
2021/07/14 12:30:33;;;;;;;;;;;;;;;38.78;21.64;99366.22;5111816;28;19960;-49
2021/07/14 12:32:58;;;;;;;;;;;;;;;38.83;21.96;99359.47;5107187;28;20387;-48
2021/07/14 12:35:25;;;;;;;;;;;;;;;39.20;21.54;99358.88;5111748;28;19922;-48
2021/07/14 12:37:51;;;;;;;;;;;;;;;39.87;20.48;99362.38;5096223;28;19916;-51
2021/07/14 12:40:29;;;;;;;;;;;;;;;40.39;19.63;99360.72;5091095;28;19916;-51
2021/07/14 12:42:58;;;;;;;;;;;;;;;39.78;20.74;99353.69;5091059;28;19932;-48
2021/07/14 12:45:26;;;;;;;;;;;;;;;39.26;21.19;99362.00;5091151;28;20006;-47
2021/07/14 12:47:51;;;;;;;;;;;;;;;38.94;21.40;99357.44;5090879;28;19912;-47
2021/07/14 12:50:23;;;;;;;;;;;;;;;39.06;21.17;99347.84;5090956;28;19912;-49
2021/07/14 12:52:49;;;;;;;;;;;;;;;38.89;21.13;99350.28;5091163;28;19922;-49
2021/07/14 12:55:17;;;;;;;;;;;;;;;38.73;21.09;99341.66;5090783;28;19912;-51